Craig Municipal Airport Jacksonville US
ICAO: KCRG
IATA: CRG
Category: Medium
Scheduled Services: No

Elevation: 41 ft
TransAlt. 18000 ft.

Airport Communications:
JACKSONVILLE APP:124.9
ATIS:125.4
CLNC DEL:118.35
CTAF:132.1
JACKSONVILLE DEP:118
GND:121.8
GAINESVILLE RDO:122.2
TWR:132.1
UNICOM:122.95

KCRG Zoom In..

If you have problems with the map follow the link
https://www.worldairports.se/pages/airport.php?
ICAO=KCRG

Runways:

(A) RW 05 length 4004 ft width 100 ft
---- / hdg 51

(B) RW 14 length 4008 ft width 100 ft
---- / hdg 141

(C) RW 23 length 4004 ft width 100 ft
---- / hdg 231

(D) RW 32 length 4008 ft width 100 ft
ILS 111.70 / hdg 321

Location; KCRG
Day. 24 / Time. 10.53 Zulu
* Altimeter: 30.27
* Temperature: 08° c. 46.4°f.
* Wind from: 000° Speed 00 kn.
Dewpoint: 07° c.
Visibility: 10 Statute Miles.
Clouds: Clear (automated report).

KCRG 241053Z 00000KT 10SM CLR 08/07 A3027 RMK AO2 SLP248 T00780072


Wind - Calm.

 
 
jpsmedia.com for Web Design worldairports.se 2019   terms of use